sensor_id;sensor_type;location;lat;lon;timestamp;P1;durP1;ratioP1;P2;durP2;ratioP2
67747;SDS011;54543;50.712;6.070;2022-09-27T00:01:03;3.20;;;1.40;;
67747;SDS011;54543;50.712;6.070;2022-09-27T00:03:31;3.13;;;2.08;;
67747;SDS011;54543;50.712;6.070;2022-09-27T00:06:01;2.90;;;1.60;;
67747;SDS011;54543;50.712;6.070;2022-09-27T00:08:30;3.40;;;1.70;;
67747;SDS011;54543;50.712;6.070;2022-09-27T00:10:57;3.03;;;1.60;;
67747;SDS011;54543;50.712;6.070;2022-09-27T00:13:24;2.50;;;1.67;;
67747;SDS011;54543;50.712;6.070;2022-09-27T00:16:00;2.80;;;2.00;;
67747;SDS011;54543;50.712;6.070;2022-09-27T00:18:29;5.72;;;2.10;;
67747;SDS011;54543;50.712;6.070;2022-09-27T00:20:55;3.60;;;2.10;;
67747;SDS011;54543;50.712;6.070;2022-09-27T00:23:27;3.40;;;2.30;;
67747;SDS011;54543;50.712;6.070;2022-09-27T00:25:56;4.45;;;2.67;;
67747;SDS011;54543;50.712;6.070;2022-09-27T00:28:23;3.60;;;2.10;;
67747;SDS011;54543;50.712;6.070;2022-09-27T00:30:49;5.63;;;2.80;;
67747;SDS011;54543;50.712;6.070;2022-09-27T00:33:14;3.20;;;2.42;;
67747;SDS011;54543;50.712;6.070;2022-09-27T00:35:40;3.88;;;1.90;;
67747;SDS011;54543;50.712;6.070;2022-09-27T00:38:05;4.65;;;2.40;;
67747;SDS011;54543;50.712;6.070;2022-09-27T00:40:31;2.78;;;1.77;;
67747;SDS011;54543;50.712;6.070;2022-09-27T00:42:57;5.10;;;2.00;;
67747;SDS011;54543;50.712;6.070;2022-09-27T00:45:23;2.92;;;1.80;;
67747;SDS011;54543;50.712;6.070;2022-09-27T00:52:59;3.33;;;1.90;;
67747;SDS011;54543;50.712;6.070;2022-09-27T00:55:34;4.90;;;2.30;;
67747;SDS011;54543;50.712;6.070;2022-09-27T00:58:03;3.60;;;2.53;;
67747;SDS011;54543;50.712;6.070;2022-09-27T01:00:30;4.43;;;2.22;;
67747;SDS011;54543;50.712;6.070;2022-09-27T01:02:57;4.72;;;2.38;;
67747;SDS011;54543;50.712;6.070;2022-09-27T01:05:25;4.30;;;2.85;;
67747;SDS011;54543;50.712;6.070;2022-09-27T01:07:52;3.78;;;2.60;;
67747;SDS011;54543;50.712;6.070;2022-09-27T01:10:20;6.78;;;2.17;;
67747;SDS011;54543;50.712;6.070;2022-09-27T01:15:27;3.83;;;2.22;;
67747;SDS011;54543;50.712;6.070;2022-09-27T01:18:20;3.95;;;2.78;;
67747;SDS011;54543;50.712;6.070;2022-09-27T01:23:32;4.63;;;2.50;;
67747;SDS011;54543;50.712;6.070;2022-09-27T01:31:44;7.68;;;3.20;;
67747;SDS011;54543;50.712;6.070;2022-09-27T01:37:31;5.93;;;2.47;;
67747;SDS011;54543;50.712;6.070;2022-09-27T01:39:59;4.85;;;2.38;;
67747;SDS011;54543;50.712;6.070;2022-09-27T01:42:37;4.47;;;2.28;;
67747;SDS011;54543;50.712;6.070;2022-09-27T01:45:23;5.03;;;3.00;;
67747;SDS011;54543;50.712;6.070;2022-09-27T01:47:52;3.88;;;2.60;;
67747;SDS011;54543;50.712;6.070;2022-09-27T01:53:46;3.30;;;2.00;;
67747;SDS011;54543;50.712;6.070;2022-09-27T01:56:17;3.78;;;2.05;;
67747;SDS011;54543;50.712;6.070;2022-09-27T02:01:20;2.97;;;1.60;;
67747;SDS011;54543;50.712;6.070;2022-09-27T02:03:49;2.72;;;1.50;;
67747;SDS011;54543;50.712;6.070;2022-09-27T02:06:25;2.83;;;1.73;;
67747;SDS011;54543;50.712;6.070;2022-09-27T02:11:35;2.42;;;1.60;;
67747;SDS011;54543;50.712;6.070;2022-09-27T02:14:14;2.83;;;1.90;;
67747;SDS011;54543;50.712;6.070;2022-09-27T02:17:24;2.72;;;1.88;;
67747;SDS011;54543;50.712;6.070;2022-09-27T02:22:14;4.70;;;2.03;;
67747;SDS011;54543;50.712;6.070;2022-09-27T02:24:50;3.65;;;2.10;;
67747;SDS011;54543;50.712;6.070;2022-09-27T02:27:23;4.40;;;1.70;;
67747;SDS011;54543;50.712;6.070;2022-09-27T02:30:24;5.47;;;2.58;;
67747;SDS011;54543;50.712;6.070;2022-09-27T02:32:43;3.53;;;1.88;;
67747;SDS011;54543;50.712;6.070;2022-09-27T02:35:21;3.17;;;1.95;;
67747;SDS011;54543;50.712;6.070;2022-09-27T02:37:53;3.88;;;1.73;;
67747;SDS011;54543;50.712;6.070;2022-09-27T02:40:20;4.47;;;2.10;;
67747;SDS011;54543;50.712;6.070;2022-09-27T02:42:46;3.35;;;1.70;;
67747;SDS011;54543;50.712;6.070;2022-09-27T02:45:12;2.60;;;2.00;;
67747;SDS011;54543;50.712;6.070;2022-09-27T02:47:44;3.58;;;2.10;;
67747;SDS011;54543;50.712;6.070;2022-09-27T02:53:09;2.83;;;1.67;;
67747;SDS011;54543;50.712;6.070;2022-09-27T02:56:00;2.70;;;1.58;;
67747;SDS011;54543;50.712;6.070;2022-09-27T03:06:47;3.75;;;1.70;;
67747;SDS011;54543;50.712;6.070;2022-09-27T03:09:24;3.42;;;2.20;;
67747;SDS011;54543;50.712;6.070;2022-09-27T03:11:53;4.53;;;1.80;;
67747;SDS011;54543;50.712;6.070;2022-09-27T03:14:19;4.97;;;2.28;;
67747;SDS011;54543;50.712;6.070;2022-09-27T03:16:44;3.13;;;2.22;;
67747;SDS011;54543;50.712;6.070;2022-09-27T03:19:10;3.95;;;2.10;;
67747;SDS011;54543;50.712;6.070;2022-09-27T03:21:35;2.58;;;1.92;;
67747;SDS011;54543;50.712;6.070;2022-09-27T03:24:01;4.22;;;1.73;;
67747;SDS011;54543;50.712;6.070;2022-09-27T03:26:27;4.13;;;2.25;;
67747;SDS011;54543;50.712;6.070;2022-09-27T03:28:53;4.03;;;2.30;;
67747;SDS011;54543;50.712;6.070;2022-09-27T03:31:18;3.70;;;2.47;;
67747;SDS011;54543;50.712;6.070;2022-09-27T03:33:44;3.60;;;2.65;;
67747;SDS011;54543;50.712;6.070;2022-09-27T03:36:09;5.22;;;2.80;;
67747;SDS011;54543;50.712;6.070;2022-09-27T03:38:36;4.32;;;2.60;;
67747;SDS011;54543;50.712;6.070;2022-09-27T03:41:02;6.22;;;2.67;;
67747;SDS011;54543;50.712;6.070;2022-09-27T03:43:28;5.22;;;2.95;;
67747;SDS011;54543;50.712;6.070;2022-09-27T03:45:53;5.55;;;3.63;;
67747;SDS011;54543;50.712;6.070;2022-09-27T03:48:19;5.95;;;3.30;;
67747;SDS011;54543;50.712;6.070;2022-09-27T03:50:45;5.53;;;3.10;;
67747;SDS011;54543;50.712;6.070;2022-09-27T03:53:10;7.65;;;3.28;;
67747;SDS011;54543;50.712;6.070;2022-09-27T03:55:36;4.65;;;3.00;;
67747;SDS011;54543;50.712;6.070;2022-09-27T03:58:01;9.48;;;3.50;;
67747;SDS011;54543;50.712;6.070;2022-09-27T04:00:27;5.20;;;2.50;;
67747;SDS011;54543;50.712;6.070;2022-09-27T04:02:53;4.50;;;2.88;;
67747;SDS011;54543;50.712;6.070;2022-09-27T04:05:18;6.45;;;3.35;;
67747;SDS011;54543;50.712;6.070;2022-09-27T04:07:47;3.75;;;2.22;;
67747;SDS011;54543;50.712;6.070;2022-09-27T04:10:13;3.20;;;2.22;;
67747;SDS011;54543;50.712;6.070;2022-09-27T04:12:40;2.63;;;2.20;;
67747;SDS011;54543;50.712;6.070;2022-09-27T04:15:05;2.63;;;1.63;;
67747;SDS011;54543;50.712;6.070;2022-09-27T04:17:32;3.50;;;2.13;;
67747;SDS011;54543;50.712;6.070;2022-09-27T04:19:58;4.03;;;2.05;;
67747;SDS011;54543;50.712;6.070;2022-09-27T04:22:28;6.47;;;2.10;;
67747;SDS011;54543;50.712;6.070;2022-09-27T04:24:54;6.25;;;2.15;;
67747;SDS011;54543;50.712;6.070;2022-09-27T04:27:20;4.25;;;2.00;;
67747;SDS011;54543;50.712;6.070;2022-09-27T04:29:48;3.70;;;1.88;;
67747;SDS011;54543;50.712;6.070;2022-09-27T04:32:14;4.80;;;2.20;;
67747;SDS011;54543;50.712;6.070;2022-09-27T04:34:39;4.10;;;2.33;;
67747;SDS011;54543;50.712;6.070;2022-09-27T04:37:24;3.20;;;2.00;;
67747;SDS011;54543;50.712;6.070;2022-09-27T04:39:50;2.85;;;1.65;;
67747;SDS011;54543;50.712;6.070;2022-09-27T04:42:16;2.55;;;1.80;;
67747;SDS011;54543;50.712;6.070;2022-09-27T04:44:42;3.90;;;1.95;;
67747;SDS011;54543;50.712;6.070;2022-09-27T04:47:08;4.55;;;1.60;;
67747;SDS011;54543;50.712;6.070;2022-09-27T04:49:35;4.60;;;1.60;;
67747;SDS011;54543;50.712;6.070;2022-09-27T04:52:00;4.90;;;2.72;;
67747;SDS011;54543;50.712;6.070;2022-09-27T04:54:26;3.45;;;1.90;;
67747;SDS011;54543;50.712;6.070;2022-09-27T04:56:52;2.80;;;1.80;;
67747;SDS011;54543;50.712;6.070;2022-09-27T04:59:17;4.78;;;2.05;;
67747;SDS011;54543;50.712;6.070;2022-09-27T05:01:43;3.53;;;2.28;;
67747;SDS011;54543;50.712;6.070;2022-09-27T05:04:09;4.10;;;2.08;;
67747;SDS011;54543;50.712;6.070;2022-09-27T05:06:35;5.15;;;2.80;;
67747;SDS011;54543;50.712;6.070;2022-09-27T05:09:00;3.80;;;2.28;;
67747;SDS011;54543;50.712;6.070;2022-09-27T05:11:26;4.43;;;2.08;;
67747;SDS011;54543;50.712;6.070;2022-09-27T05:13:51;5.10;;;2.15;;
67747;SDS011;54543;50.712;6.070;2022-09-27T05:16:17;3.58;;;1.90;;
67747;SDS011;54543;50.712;6.070;2022-09-27T05:18:44;3.88;;;2.10;;
67747;SDS011;54543;50.712;6.070;2022-09-27T05:21:10;3.17;;;2.17;;
67747;SDS011;54543;50.712;6.070;2022-09-27T05:23:36;2.90;;;1.48;;
67747;SDS011;54543;50.712;6.070;2022-09-27T05:26:03;4.82;;;2.08;;
67747;SDS011;54543;50.712;6.070;2022-09-27T05:28:29;2.60;;;1.55;;
67747;SDS011;54543;50.712;6.070;2022-09-27T05:30:56;4.60;;;2.20;;
67747;SDS011;54543;50.712;6.070;2022-09-27T05:33:22;5.10;;;2.08;;
67747;SDS011;54543;50.712;6.070;2022-09-27T05:35:51;2.75;;;1.70;;
67747;SDS011;54543;50.712;6.070;2022-09-27T05:38:18;4.03;;;2.03;;
67747;SDS011;54543;50.712;6.070;2022-09-27T05:40:44;5.28;;;2.10;;
67747;SDS011;54543;50.712;6.070;2022-09-27T05:43:11;4.45;;;2.10;;
67747;SDS011;54543;50.712;6.070;2022-09-27T05:45:38;4.95;;;2.22;;
67747;SDS011;54543;50.712;6.070;2022-09-27T05:48:03;3.60;;;2.08;;
67747;SDS011;54543;50.712;6.070;2022-09-27T05:50:29;4.68;;;1.90;;
67747;SDS011;54543;50.712;6.070;2022-09-27T05:52:55;4.25;;;2.00;;
67747;SDS011;54543;50.712;6.070;2022-09-27T05:55:20;3.80;;;2.00;;
67747;SDS011;54543;50.712;6.070;2022-09-27T05:57:53;6.90;;;2.30;;
67747;SDS011;54543;50.712;6.070;2022-09-27T06:00:20;2.63;;;1.58;;
67747;SDS011;54543;50.712;6.070;2022-09-27T06:02:51;4.25;;;2.53;;
67747;SDS011;54543;50.712;6.070;2022-09-27T06:05:22;6.20;;;2.00;;
67747;SDS011;54543;50.712;6.070;2022-09-27T06:07:48;2.95;;;1.80;;
67747;SDS011;54543;50.712;6.070;2022-09-27T06:10:14;4.03;;;1.77;;
67747;SDS011;54543;50.712;6.070;2022-09-27T06:12:41;2.95;;;1.70;;
67747;SDS011;54543;50.712;6.070;2022-09-27T06:15:06;4.78;;;2.50;;
67747;SDS011;54543;50.712;6.070;2022-09-27T06:17:35;4.38;;;2.33;;
67747;SDS011;54543;50.712;6.070;2022-09-27T06:20:01;3.92;;;2.30;;
67747;SDS011;54543;50.712;6.070;2022-09-27T06:22:28;3.58;;;1.98;;
67747;SDS011;54543;50.712;6.070;2022-09-27T06:24:54;4.60;;;2.22;;
67747;SDS011;54543;50.712;6.070;2022-09-27T06:27:20;3.30;;;2.22;;
67747;SDS011;54543;50.712;6.070;2022-09-27T06:29:46;4.15;;;2.40;;
67747;SDS011;54543;50.712;6.070;2022-09-27T06:32:11;4.00;;;2.40;;
67747;SDS011;54543;50.712;6.070;2022-09-27T06:34:37;3.60;;;2.30;;
67747;SDS011;54543;50.712;6.070;2022-09-27T06:37:03;5.50;;;2.70;;
67747;SDS011;54543;50.712;6.070;2022-09-27T06:39:28;3.45;;;2.35;;
67747;SDS011;54543;50.712;6.070;2022-09-27T06:41:57;3.63;;;2.15;;
67747;SDS011;54543;50.712;6.070;2022-09-27T06:44:23;4.47;;;2.78;;
67747;SDS011;54543;50.712;6.070;2022-09-27T06:46:52;4.88;;;2.92;;
67747;SDS011;54543;50.712;6.070;2022-09-27T06:49:19;5.80;;;3.35;;
67747;SDS011;54543;50.712;6.070;2022-09-27T06:51:47;5.40;;;2.88;;
67747;SDS011;54543;50.712;6.070;2022-09-27T06:54:13;6.30;;;3.03;;
67747;SDS011;54543;50.712;6.070;2022-09-27T06:56:38;5.38;;;2.70;;
67747;SDS011;54543;50.712;6.070;2022-09-27T06:59:04;3.63;;;2.42;;
67747;SDS011;54543;50.712;6.070;2022-09-27T07:01:48;4.65;;;2.65;;
67747;SDS011;54543;50.712;6.070;2022-09-27T07:04:16;5.05;;;2.47;;
67747;SDS011;54543;50.712;6.070;2022-09-27T07:06:43;5.47;;;2.53;;
67747;SDS011;54543;50.712;6.070;2022-09-27T07:09:08;3.67;;;2.30;;
67747;SDS011;54543;50.712;6.070;2022-09-27T07:11:34;5.07;;;3.00;;
67747;SDS011;54543;50.712;6.070;2022-09-27T07:14:03;4.57;;;2.78;;
67747;SDS011;54543;50.712;6.070;2022-09-27T07:16:29;4.25;;;2.50;;
67747;SDS011;54543;50.712;6.070;2022-09-27T07:18:59;4.57;;;2.80;;
67747;SDS011;54543;50.712;6.070;2022-09-27T07:21:24;3.67;;;2.50;;
67747;SDS011;54543;50.712;6.070;2022-09-27T07:23:50;4.13;;;2.53;;
67747;SDS011;54543;50.712;6.070;2022-09-27T07:26:16;5.07;;;2.60;;
67747;SDS011;54543;50.712;6.070;2022-09-27T07:28:41;5.32;;;2.85;;
67747;SDS011;54543;50.712;6.070;2022-09-27T07:31:07;5.15;;;2.75;;
67747;SDS011;54543;50.712;6.070;2022-09-27T07:33:33;5.85;;;3.05;;
67747;SDS011;54543;50.712;6.070;2022-09-27T07:35:59;4.30;;;2.80;;
67747;SDS011;54543;50.712;6.070;2022-09-27T07:38:25;4.75;;;3.00;;
67747;SDS011;54543;50.712;6.070;2022-09-27T07:40:51;4.43;;;3.10;;
67747;SDS011;54543;50.712;6.070;2022-09-27T07:43:17;5.55;;;3.58;;
67747;SDS011;54543;50.712;6.070;2022-09-27T07:45:43;7.80;;;3.85;;
67747;SDS011;54543;50.712;6.070;2022-09-27T07:48:11;7.57;;;4.40;;
67747;SDS011;54543;50.712;6.070;2022-09-27T07:50:38;9.25;;;4.28;;
67747;SDS011;54543;50.712;6.070;2022-09-27T07:53:03;5.15;;;3.53;;
67747;SDS011;54543;50.712;6.070;2022-09-27T07:55:29;8.07;;;4.60;;
67747;SDS011;54543;50.712;6.070;2022-09-27T07:58:04;4.82;;;3.22;;
67747;SDS011;54543;50.712;6.070;2022-09-27T08:00:33;6.28;;;4.18;;
67747;SDS011;54543;50.712;6.070;2022-09-27T08:03:02;8.75;;;4.43;;
67747;SDS011;54543;50.712;6.070;2022-09-27T08:05:33;8.05;;;4.93;;
67747;SDS011;54543;50.712;6.070;2022-09-27T08:08:00;6.45;;;3.45;;
67747;SDS011;54543;50.712;6.070;2022-09-27T08:10:27;6.68;;;4.50;;
67747;SDS011;54543;50.712;6.070;2022-09-27T08:12:55;6.88;;;3.83;;
67747;SDS011;54543;50.712;6.070;2022-09-27T08:15:28;6.10;;;3.60;;
67747;SDS011;54543;50.712;6.070;2022-09-27T08:17:56;6.20;;;3.17;;
67747;SDS011;54543;50.712;6.070;2022-09-27T08:20:21;6.55;;;3.88;;
67747;SDS011;54543;50.712;6.070;2022-09-27T08:22:47;5.65;;;3.60;;
67747;SDS011;54543;50.712;6.070;2022-09-27T08:25:12;6.10;;;3.65;;
67747;SDS011;54543;50.712;6.070;2022-09-27T08:27:39;5.55;;;3.53;;
67747;SDS011;54543;50.712;6.070;2022-09-27T08:30:05;5.13;;;3.00;;
67747;SDS011;54543;50.712;6.070;2022-09-27T08:32:31;4.78;;;2.90;;
67747;SDS011;54543;50.712;6.070;2022-09-27T08:34:56;3.92;;;2.40;;
67747;SDS011;54543;50.712;6.070;2022-09-27T08:37:24;5.10;;;2.70;;
67747;SDS011;54543;50.712;6.070;2022-09-27T08:39:49;5.57;;;3.70;;
67747;SDS011;54543;50.712;6.070;2022-09-27T08:42:27;4.82;;;2.67;;
67747;SDS011;54543;50.712;6.070;2022-09-27T08:47:44;6.72;;;3.40;;
67747;SDS011;54543;50.712;6.070;2022-09-27T08:52:52;4.53;;;2.97;;
67747;SDS011;54543;50.712;6.070;2022-09-27T08:55:37;6.22;;;3.47;;
67747;SDS011;54543;50.712;6.070;2022-09-27T09:00:41;7.55;;;4.00;;
67747;SDS011;54543;50.712;6.070;2022-09-27T09:03:11;4.85;;;3.13;;
67747;SDS011;54543;50.712;6.070;2022-09-27T09:05:42;6.17;;;4.00;;
67747;SDS011;54543;50.712;6.070;2022-09-27T09:11:29;5.60;;;3.63;;
67747;SDS011;54543;50.712;6.070;2022-09-27T09:20:21;8.45;;;4.55;;
67747;SDS011;54543;50.712;6.070;2022-09-27T09:33:24;9.68;;;4.82;;
67747;SDS011;54543;50.712;6.070;2022-09-27T09:35:56;6.47;;;4.75;;
67747;SDS011;54543;50.712;6.070;2022-09-27T09:38:40;7.22;;;4.57;;
67747;SDS011;54543;50.712;6.070;2022-09-27T09:47:09;7.05;;;4.72;;
67747;SDS011;54543;50.712;6.070;2022-09-27T09:49:43;13.25;;;6.78;;
67747;SDS011;54543;50.712;6.070;2022-09-27T09:52:17;9.23;;;5.88;;
67747;SDS011;54543;50.712;6.070;2022-09-27T09:54:50;11.02;;;5.72;;
67747;SDS011;54543;50.712;6.070;2022-09-27T09:59:54;7.95;;;4.80;;
67747;SDS011;54543;50.712;6.070;2022-09-27T10:04:50;7.80;;;4.97;;
67747;SDS011;54543;50.712;6.070;2022-09-27T10:07:15;12.35;;;5.13;;
67747;SDS011;54543;50.712;6.070;2022-09-27T10:09:45;8.23;;;5.25;;
67747;SDS011;54543;50.712;6.070;2022-09-27T10:12:11;7.25;;;4.88;;
67747;SDS011;54543;50.712;6.070;2022-09-27T10:14:36;6.85;;;4.28;;
67747;SDS011;54543;50.712;6.070;2022-09-27T10:17:03;6.20;;;4.68;;
67747;SDS011;54543;50.712;6.070;2022-09-27T10:19:34;8.10;;;5.13;;
67747;SDS011;54543;50.712;6.070;2022-09-27T10:22:12;7.38;;;4.75;;
67747;SDS011;54543;50.712;6.070;2022-09-27T10:24:55;7.13;;;5.28;;
67747;SDS011;54543;50.712;6.070;2022-09-27T10:27:28;6.53;;;4.45;;
67747;SDS011;54543;50.712;6.070;2022-09-27T10:30:29;6.05;;;3.97;;
67747;SDS011;54543;50.712;6.070;2022-09-27T10:33:02;5.43;;;3.70;;
67747;SDS011;54543;50.712;6.070;2022-09-27T10:40:47;7.53;;;3.88;;
67747;SDS011;54543;50.712;6.070;2022-09-27T10:43:25;6.45;;;3.92;;
67747;SDS011;54543;50.712;6.070;2022-09-27T10:46:02;5.13;;;3.22;;
67747;SDS011;54543;50.712;6.070;2022-09-27T10:48:28;7.30;;;5.23;;
67747;SDS011;54543;50.712;6.070;2022-09-27T10:50:58;5.25;;;3.30;;
67747;SDS011;54543;50.712;6.070;2022-09-27T10:53:25;5.85;;;3.72;;
67747;SDS011;54543;50.712;6.070;2022-09-27T10:55:53;5.78;;;3.45;;
67747;SDS011;54543;50.712;6.070;2022-09-27T11:00:53;4.00;;;2.78;;
67747;SDS011;54543;50.712;6.070;2022-09-27T11:03:25;3.80;;;2.00;;
67747;SDS011;54543;50.712;6.070;2022-09-27T11:05:53;3.10;;;2.25;;
67747;SDS011;54543;50.712;6.070;2022-09-27T11:11:01;2.95;;;1.92;;
67747;SDS011;54543;50.712;6.070;2022-09-27T11:13:55;7.07;;;2.30;;
67747;SDS011;54543;50.712;6.070;2022-09-27T11:16:46;2.78;;;1.90;;
67747;SDS011;54543;50.712;6.070;2022-09-27T11:19:37;3.97;;;2.08;;
67747;SDS011;54543;50.712;6.070;2022-09-27T11:45:11;5.63;;;2.47;;
67747;SDS011;54543;50.712;6.070;2022-09-27T11:47:49;4.13;;;2.42;;
67747;SDS011;54543;50.712;6.070;2022-09-27T11:53:23;4.67;;;2.30;;
67747;SDS011;54543;50.712;6.070;2022-09-27T11:58:44;4.97;;;2.10;;
67747;SDS011;54543;50.712;6.070;2022-09-27T12:04:28;3.58;;;2.38;;
67747;SDS011;54543;50.712;6.070;2022-09-27T12:09:47;3.92;;;2.33;;
67747;SDS011;54543;50.712;6.070;2022-09-27T12:12:24;3.72;;;2.47;;
67747;SDS011;54543;50.712;6.070;2022-09-27T12:14:54;4.72;;;2.78;;
67747;SDS011;54543;50.712;6.070;2022-09-27T12:17:33;4.75;;;2.47;;
67747;SDS011;54543;50.712;6.070;2022-09-27T12:20:05;4.18;;;2.60;;
67747;SDS011;54543;50.712;6.070;2022-09-27T12:23:24;4.68;;;1.90;;
67747;SDS011;54543;50.712;6.070;2022-09-27T12:25:42;3.65;;;2.38;;
67747;SDS011;54543;50.712;6.070;2022-09-27T12:30:46;5.38;;;2.10;;
67747;SDS011;54543;50.712;6.070;2022-09-27T12:33:25;3.60;;;2.17;;
67747;SDS011;54543;50.712;6.070;2022-09-27T12:36:15;4.60;;;2.00;;
67747;SDS011;54543;50.712;6.070;2022-09-27T12:38:45;2.45;;;1.80;;
67747;SDS011;54543;50.712;6.070;2022-09-27T12:41:18;3.28;;;1.90;;
67747;SDS011;54543;50.712;6.070;2022-09-27T12:43:48;3.13;;;1.70;;
67747;SDS011;54543;50.712;6.070;2022-09-27T12:49:13;4.18;;;1.90;;
67747;SDS011;54543;50.712;6.070;2022-09-27T12:51:40;3.25;;;1.98;;
67747;SDS011;54543;50.712;6.070;2022-09-27T13:02:31;5.45;;;1.80;;
67747;SDS011;54543;50.712;6.070;2022-09-27T13:13:25;3.28;;;1.70;;
67747;SDS011;54543;50.712;6.070;2022-09-27T13:15:57;5.75;;;2.55;;
67747;SDS011;54543;50.712;6.070;2022-09-27T13:21:00;2.20;;;1.60;;
67747;SDS011;54543;50.712;6.070;2022-09-27T13:28:30;3.63;;;1.85;;
67747;SDS011;54543;50.712;6.070;2022-09-27T13:31:08;3.97;;;1.75;;
67747;SDS011;54543;50.712;6.070;2022-09-27T13:36:07;3.88;;;1.60;;
67747;SDS011;54543;50.712;6.070;2022-09-27T13:44:25;3.97;;;1.55;;
67747;SDS011;54543;50.712;6.070;2022-09-27T13:53:02;3.67;;;1.40;;
67747;SDS011;54543;50.712;6.070;2022-09-27T13:58:14;3.92;;;1.55;;
67747;SDS011;54543;50.712;6.070;2022-09-27T14:03:48;23.77;;;4.18;;
67747;SDS011;54543;50.712;6.070;2022-09-27T14:06:20;3.03;;;1.73;;
67747;SDS011;54543;50.712;6.070;2022-09-27T14:08:54;1.48;;;1.15;;
67747;SDS011;54543;50.712;6.070;2022-09-27T14:14:07;3.78;;;1.45;;
67747;SDS011;54543;50.712;6.070;2022-09-27T14:16:41;2.25;;;1.40;;
67747;SDS011;54543;50.712;6.070;2022-09-27T14:19:22;2.70;;;1.60;;
67747;SDS011;54543;50.712;6.070;2022-09-27T14:21:55;4.22;;;1.42;;
67747;SDS011;54543;50.712;6.070;2022-09-27T14:24:31;2.22;;;1.38;;
67747;SDS011;54543;50.712;6.070;2022-09-27T14:32:27;3.83;;;1.58;;
67747;SDS011;54543;50.712;6.070;2022-09-27T14:35:06;2.72;;;1.58;;
67747;SDS011;54543;50.712;6.070;2022-09-27T14:37:59;1.45;;;1.08;;
67747;SDS011;54543;50.712;6.070;2022-09-27T14:40:26;2.90;;;1.30;;
67747;SDS011;54543;50.712;6.070;2022-09-27T14:42:54;3.25;;;1.70;;
67747;SDS011;54543;50.712;6.070;2022-09-27T14:48:03;2.88;;;1.90;;
67747;SDS011;54543;50.712;6.070;2022-09-27T14:50:53;5.00;;;2.97;;
67747;SDS011;54543;50.712;6.070;2022-09-27T14:53:24;3.72;;;1.92;;
67747;SDS011;54543;50.712;6.070;2022-09-27T14:55:50;3.33;;;2.13;;
67747;SDS011;54543;50.712;6.070;2022-09-27T14:58:18;4.75;;;1.75;;
67747;SDS011;54543;50.712;6.070;2022-09-27T15:00:47;3.58;;;1.90;;
67747;SDS011;54543;50.712;6.070;2022-09-27T15:03:32;4.32;;;2.40;;
67747;SDS011;54543;50.712;6.070;2022-09-27T15:05:58;2.28;;;1.50;;
67747;SDS011;54543;50.712;6.070;2022-09-27T15:08:26;3.38;;;1.70;;
67747;SDS011;54543;50.712;6.070;2022-09-27T15:10:58;4.00;;;2.30;;
67747;SDS011;54543;50.712;6.070;2022-09-27T15:13:25;3.05;;;1.83;;
67747;SDS011;54543;50.712;6.070;2022-09-27T15:15:51;2.80;;;1.58;;
67747;SDS011;54543;50.712;6.070;2022-09-27T15:21:06;2.92;;;1.70;;
67747;SDS011;54543;50.712;6.070;2022-09-27T15:23:40;2.95;;;2.08;;
67747;SDS011;54543;50.712;6.070;2022-09-27T15:28:36;3.85;;;2.40;;
67747;SDS011;54543;50.712;6.070;2022-09-27T15:31:05;4.18;;;2.13;;
67747;SDS011;54543;50.712;6.070;2022-09-27T15:33:32;5.13;;;2.58;;
67747;SDS011;54543;50.712;6.070;2022-09-27T15:36:00;4.10;;;2.65;;
67747;SDS011;54543;50.712;6.070;2022-09-27T15:38:31;5.05;;;2.20;;
67747;SDS011;54543;50.712;6.070;2022-09-27T15:41:58;4.18;;;2.63;;
67747;SDS011;54543;50.712;6.070;2022-09-27T15:43:49;3.85;;;2.08;;
67747;SDS011;54543;50.712;6.070;2022-09-27T15:51:49;4.85;;;2.83;;
67747;SDS011;54543;50.712;6.070;2022-09-27T15:54:17;4.00;;;2.80;;
67747;SDS011;54543;50.712;6.070;2022-09-27T15:56:43;5.25;;;2.33;;
67747;SDS011;54543;50.712;6.070;2022-09-27T15:59:11;4.85;;;2.55;;
67747;SDS011;54543;50.712;6.070;2022-09-27T16:01:43;6.55;;;2.33;;
67747;SDS011;54543;50.712;6.070;2022-09-27T16:04:09;3.65;;;2.50;;
67747;SDS011;54543;50.712;6.070;2022-09-27T16:06:34;5.15;;;2.70;;
67747;SDS011;54543;50.712;6.070;2022-09-27T16:09:00;4.22;;;2.60;;
67747;SDS011;54543;50.712;6.070;2022-09-27T16:11:25;4.90;;;2.88;;
67747;SDS011;54543;50.712;6.070;2022-09-27T16:13:51;5.03;;;2.65;;
67747;SDS011;54543;50.712;6.070;2022-09-27T16:16:19;5.80;;;2.65;;
67747;SDS011;54543;50.712;6.070;2022-09-27T16:18:46;4.50;;;2.13;;
67747;SDS011;54543;50.712;6.070;2022-09-27T16:21:12;4.47;;;2.30;;
67747;SDS011;54543;50.712;6.070;2022-09-27T16:23:38;3.60;;;2.00;;
67747;SDS011;54543;50.712;6.070;2022-09-27T16:26:04;6.82;;;4.70;;
67747;SDS011;54543;50.712;6.070;2022-09-27T16:28:31;4.53;;;2.75;;
67747;SDS011;54543;50.712;6.070;2022-09-27T16:31:04;4.88;;;4.43;;
67747;SDS011;54543;50.712;6.070;2022-09-27T16:33:31;8.02;;;5.85;;
67747;SDS011;54543;50.712;6.070;2022-09-27T16:35:57;6.80;;;6.13;;
67747;SDS011;54543;50.712;6.070;2022-09-27T16:38:26;7.00;;;5.80;;
67747;SDS011;54543;50.712;6.070;2022-09-27T16:40:58;7.88;;;6.72;;
67747;SDS011;54543;50.712;6.070;2022-09-27T16:43:27;8.38;;;5.57;;
67747;SDS011;54543;50.712;6.070;2022-09-27T16:45:53;6.18;;;4.55;;
67747;SDS011;54543;50.712;6.070;2022-09-27T16:48:19;8.15;;;5.10;;
67747;SDS011;54543;50.712;6.070;2022-09-27T16:50:45;5.60;;;3.42;;
67747;SDS011;54543;50.712;6.070;2022-09-27T16:53:29;6.13;;;3.47;;
67747;SDS011;54543;50.712;6.070;2022-09-27T16:55:58;5.38;;;3.30;;
67747;SDS011;54543;50.712;6.070;2022-09-27T16:58:24;5.32;;;3.50;;
67747;SDS011;54543;50.712;6.070;2022-09-27T17:00:49;6.03;;;3.67;;
67747;SDS011;54543;50.712;6.070;2022-09-27T17:03:15;4.75;;;3.03;;
67747;SDS011;54543;50.712;6.070;2022-09-27T17:05:40;5.82;;;3.50;;
67747;SDS011;54543;50.712;6.070;2022-09-27T17:08:05;5.97;;;3.15;;
67747;SDS011;54543;50.712;6.070;2022-09-27T17:10:31;4.00;;;2.80;;
67747;SDS011;54543;50.712;6.070;2022-09-27T17:12:56;8.95;;;4.18;;
67747;SDS011;54543;50.712;6.070;2022-09-27T17:15:22;6.93;;;3.30;;
67747;SDS011;54543;50.712;6.070;2022-09-27T17:17:48;4.47;;;3.08;;
67747;SDS011;54543;50.712;6.070;2022-09-27T17:20:14;4.88;;;3.42;;
67747;SDS011;54543;50.712;6.070;2022-09-27T17:22:40;5.88;;;3.88;;
67747;SDS011;54543;50.712;6.070;2022-09-27T17:25:05;5.97;;;4.55;;
67747;SDS011;54543;50.712;6.070;2022-09-27T17:27:31;5.68;;;3.20;;
67747;SDS011;54543;50.712;6.070;2022-09-27T17:29:57;4.38;;;3.00;;
67747;SDS011;54543;50.712;6.070;2022-09-27T17:32:22;5.07;;;2.90;;
67747;SDS011;54543;50.712;6.070;2022-09-27T17:34:51;6.10;;;3.40;;
67747;SDS011;54543;50.712;6.070;2022-09-27T17:37:16;3.88;;;3.00;;
67747;SDS011;54543;50.712;6.070;2022-09-27T17:39:42;6.00;;;3.15;;
67747;SDS011;54543;50.712;6.070;2022-09-27T17:42:07;4.93;;;3.47;;
67747;SDS011;54543;50.712;6.070;2022-09-27T17:44:33;4.57;;;3.17;;
67747;SDS011;54543;50.712;6.070;2022-09-27T17:46:59;4.18;;;2.75;;
67747;SDS011;54543;50.712;6.070;2022-09-27T17:49:43;5.72;;;3.50;;
67747;SDS011;54543;50.712;6.070;2022-09-27T17:52:27;7.85;;;4.28;;
67747;SDS011;54543;50.712;6.070;2022-09-27T17:54:55;7.47;;;3.60;;
67747;SDS011;54543;50.712;6.070;2022-09-27T17:57:22;7.43;;;4.45;;
67747;SDS011;54543;50.712;6.070;2022-09-27T17:59:48;5.43;;;3.50;;
67747;SDS011;54543;50.712;6.070;2022-09-27T18:02:13;5.70;;;4.20;;
67747;SDS011;54543;50.712;6.070;2022-09-27T18:04:39;4.85;;;3.35;;
67747;SDS011;54543;50.712;6.070;2022-09-27T18:07:04;7.65;;;3.55;;
67747;SDS011;54543;50.712;6.070;2022-09-27T18:09:29;5.63;;;3.85;;
67747;SDS011;54543;50.712;6.070;2022-09-27T18:11:55;5.90;;;3.72;;
67747;SDS011;54543;50.712;6.070;2022-09-27T18:14:22;7.40;;;4.30;;
67747;SDS011;54543;50.712;6.070;2022-09-27T18:16:48;6.28;;;3.63;;
67747;SDS011;54543;50.712;6.070;2022-09-27T18:19:15;6.22;;;4.57;;